Time;durP1;ratioP1;P1;durP2;ratioP2;P2;SDS_P1;SDS_P2;PMS_P1;PMS_P2;Temp;Humidity;BMP_temperature;BMP_pressure;BME280_temperature;BME280_humidity;BME280_pressure;Samples;Min_cycle;Max_cycle;Signal;HPM_P1;HPM_P2
2023/12/05 00:00:32;;;;;;;27.08;13.82;;;-2.10;99.90;;;;;;4988987;28;20034;-61
2023/12/05 00:02:57;;;;;;;18.40;13.13;;;-2.10;99.90;;;;;;4988415;28;20061;-61
2023/12/05 00:05:23;;;;;;;22.90;14.18;;;-2.00;99.90;;;;;;4987349;28;20522;-61
2023/12/05 00:07:49;;;;;;;21.35;13.25;;;-2.00;99.90;;;;;;4987403;28;20422;-60
2023/12/05 00:10:15;;;;;;;24.65;14.10;;;-2.10;99.90;;;;;;4988838;28;20026;-61
2023/12/05 00:12:40;;;;;;;19.65;13.63;;;-2.10;99.90;;;;;;4988736;28;20037;-61
2023/12/05 00:15:06;;;;;;;21.13;14.05;;;-2.10;99.90;;;;;;4987496;28;20092;-60
2023/12/05 00:17:32;;;;;;;21.23;14.20;;;-2.10;99.90;;;;;;4987543;28;20034;-61
2023/12/05 00:19:58;;;;;;;23.67;15.40;;;-2.10;99.90;;;;;;4986864;28;20023;-60
2023/12/05 00:22:26;;;;;;;21.17;13.85;;;-2.10;99.90;;;;;;4990077;28;20040;-60
2023/12/05 00:24:52;;;;;;;19.55;14.52;;;-2.10;99.90;;;;;;4988474;28;20046;-60
2023/12/05 00:27:18;;;;;;;19.85;15.38;;;-2.10;99.90;;;;;;4988870;28;20117;-60
2023/12/05 00:29:44;;;;;;;22.45;15.20;;;-2.10;99.90;;;;;;4987870;28;20486;-59
2023/12/05 00:32:10;;;;;;;21.75;14.20;;;-2.10;99.90;;;;;;4989456;28;20535;-61
2023/12/05 00:34:36;;;;;;;22.17;14.48;;;-2.10;99.90;;;;;;4986375;28;20043;-60
2023/12/05 00:37:03;;;;;;;25.95;14.40;;;-2.10;99.90;;;;;;4987028;28;20031;-60
2023/12/05 00:39:28;;;;;;;25.35;16.85;;;-2.10;99.90;;;;;;4988797;28;20106;-59
2023/12/05 00:41:54;;;;;;;23.05;14.30;;;-2.10;99.90;;;;;;4986174;28;20789;-60
2023/12/05 00:44:20;;;;;;;21.63;15.20;;;-2.10;99.90;;;;;;4985732;28;20047;-60
2023/12/05 00:46:45;;;;;;;25.17;15.43;;;-2.10;99.90;;;;;;4986971;28;20037;-59
2023/12/05 00:49:11;;;;;;;24.27;15.73;;;-2.10;99.90;;;;;;4987368;28;20035;-60
2023/12/05 00:51:37;;;;;;;26.17;16.42;;;-2.00;99.90;;;;;;4987183;28;20715;-60
2023/12/05 00:54:02;;;;;;;21.27;14.65;;;-2.10;99.90;;;;;;4987190;28;20034;-60
2023/12/05 00:56:28;;;;;;;25.95;15.43;;;-2.10;99.90;;;;;;4986290;28;20034;-60
2023/12/05 00:58:54;;;;;;;24.40;15.52;;;-2.00;99.90;;;;;;4987213;28;20034;-59
2023/12/05 01:01:19;;;;;;;22.23;15.27;;;-2.00;99.90;;;;;;4987673;28;20034;-60
2023/12/05 01:03:45;;;;;;;23.42;14.98;;;-2.00;99.90;;;;;;4986786;28;20509;-60
2023/12/05 01:06:11;;;;;;;20.15;13.82;;;-2.00;99.90;;;;;;4987028;28;20026;-61
2023/12/05 01:08:36;;;;;;;24.02;15.00;;;-2.00;99.90;;;;;;4986693;28;20117;-61
2023/12/05 01:11:02;;;;;;;27.58;16.42;;;-2.00;99.90;;;;;;4987227;28;20041;-59
2023/12/05 01:13:28;;;;;;;23.90;15.55;;;-2.00;99.90;;;;;;4987675;28;20034;-60
2023/12/05 01:15:53;;;;;;;27.02;15.15;;;-2.00;99.90;;;;;;4986865;28;20031;-61
2023/12/05 01:18:19;;;;;;;23.83;14.80;;;-2.00;99.90;;;;;;4986970;28;20399;-60
2023/12/05 01:20:45;;;;;;;22.65;15.02;;;-2.00;99.90;;;;;;4987300;28;20027;-61
2023/12/05 01:23:10;;;;;;;29.10;16.65;;;-2.00;99.90;;;;;;4987433;28;20069;-60
2023/12/05 01:25:36;;;;;;;24.63;16.38;;;-2.00;99.90;;;;;;4987122;28;20027;-63
2023/12/05 01:28:02;;;;;;;27.13;16.63;;;-2.00;99.90;;;;;;4987621;28;20014;-60
2023/12/05 01:30:28;;;;;;;26.33;16.77;;;-2.00;99.90;;;;;;4987734;28;20453;-61
2023/12/05 01:32:54;;;;;;;29.45;15.80;;;-2.00;99.90;;;;;;4987939;28;20065;-60
2023/12/05 01:35:19;;;;;;;28.60;17.02;;;-2.00;99.90;;;;;;4987645;28;20454;-60
2023/12/05 01:37:48;;;;;;;26.70;16.60;;;-2.10;99.90;;;;;;4987212;28;20084;-60
2023/12/05 01:40:13;;;;;;;30.20;16.90;;;-2.10;99.90;;;;;;4987067;28;20875;-59
2023/12/05 01:42:39;;;;;;;27.55;16.17;;;-2.10;99.90;;;;;;4988046;28;20018;-61
2023/12/05 01:45:05;;;;;;;27.52;15.45;;;-2.10;99.90;;;;;;4986960;28;20057;-60
2023/12/05 01:47:35;;;;;;;29.13;18.20;;;-2.10;99.90;;;;;;4987052;28;20034;-60
2023/12/05 01:50:03;;;;;;;25.30;16.58;;;-2.10;99.90;;;;;;4987102;28;20037;-60
2023/12/05 01:52:30;;;;;;;27.05;16.48;;;-2.10;99.90;;;;;;4987305;28;20401;-60
2023/12/05 01:54:56;;;;;;;29.17;16.30;;;-2.20;99.90;;;;;;4986841;28;20498;-61
2023/12/05 01:57:24;;;;;;;25.83;16.08;;;-2.20;99.90;;;;;;4987107;28;20057;-60
2023/12/05 01:59:52;;;;;;;29.15;17.38;;;-2.20;99.90;;;;;;4986901;28;20026;-60
2023/12/05 02:02:18;;;;;;;27.27;16.30;;;-2.20;99.90;;;;;;4985991;28;20085;-61
2023/12/05 02:04:44;;;;;;;30.17;17.13;;;-2.20;99.90;;;;;;4986588;28;20030;-59
2023/12/05 02:07:12;;;;;;;32.10;17.95;;;-2.30;99.90;;;;;;4986623;28;20115;-60
2023/12/05 02:09:38;;;;;;;33.08;18.10;;;-2.30;99.90;;;;;;4987454;28;20050;-60
2023/12/05 02:12:04;;;;;;;32.50;17.77;;;-2.30;99.90;;;;;;4987057;28;20030;-61
2023/12/05 02:14:30;;;;;;;35.85;17.83;;;-2.40;99.90;;;;;;4986306;28;20132;-60
2023/12/05 02:17:33;;;;;;;40.60;19.77;;;-2.50;99.90;;;;;;4986666;28;20109;-61
2023/12/05 02:20:45;;;;;;;40.05;19.00;;;-2.60;99.90;;;;;;4984452;28;20037;-60
2023/12/05 02:23:32;;;;;;;48.30;22.42;;;-2.60;99.90;;;;;;4967065;28;20088;-60
2023/12/05 02:25:57;;;;;;;37.08;20.13;;;-2.70;99.90;;;;;;4984718;28;20080;-61
2023/12/05 02:28:24;;;;;;;44.63;21.30;;;-2.70;99.90;;;;;;4986925;28;20027;-60
2023/12/05 02:30:50;;;;;;;35.50;19.63;;;-2.60;99.90;;;;;;4986974;28;20486;-60
2023/12/05 02:33:16;;;;;;;42.22;20.55;;;-2.70;99.90;;;;;;4985863;28;20065;-61
2023/12/05 02:35:42;;;;;;;38.63;19.08;;;-2.60;99.90;;;;;;4986405;28;20458;-61
2023/12/05 02:38:16;;;;;;;36.22;19.35;;;-2.70;99.90;;;;;;4985490;28;20553;-60
2023/12/05 02:41:01;;;;;;;39.95;19.60;;;-2.60;99.90;;;;;;4986304;28;20057;-60
2023/12/05 02:43:41;;;;;;;36.67;19.33;;;-2.60;99.90;;;;;;4986547;28;20387;-61
2023/12/05 02:46:08;;;;;;;39.13;20.17;;;-2.60;99.90;;;;;;4985976;28;20387;-60
2023/12/05 02:48:36;;;;;;;33.08;19.02;;;-2.60;99.90;;;;;;4987182;28;20053;-60
2023/12/05 02:51:02;;;;;;;39.83;18.27;;;-2.60;99.90;;;;;;4986121;28;20027;-60
2023/12/05 02:53:28;;;;;;;45.83;21.67;;;-2.60;99.90;;;;;;4986746;28;20093;-60
2023/12/05 02:55:54;;;;;;;38.17;20.65;;;-2.50;99.90;;;;;;4986225;28;20045;-60
2023/12/05 02:58:19;;;;;;;36.17;19.90;;;-2.50;99.90;;;;;;4986851;28;20426;-58
2023/12/05 03:00:45;;;;;;;38.83;20.02;;;-2.50;99.90;;;;;;4986085;28;20073;-62
2023/12/05 03:03:10;;;;;;;33.15;19.08;;;-2.50;99.90;;;;;;4988849;28;20040;-60
2023/12/05 03:05:37;;;;;;;39.15;19.50;;;-2.50;99.90;;;;;;4989628;28;20028;-61
2023/12/05 03:08:03;;;;;;;37.55;19.35;;;-2.50;99.90;;;;;;4987900;28;20030;-61
2023/12/05 03:10:28;;;;;;;36.72;20.02;;;-2.60;99.90;;;;;;4988592;28;20030;-60
2023/12/05 03:12:54;;;;;;;38.10;19.27;;;-2.50;99.90;;;;;;4990471;28;20125;-59
2023/12/05 03:15:19;;;;;;;37.42;19.95;;;-2.60;99.90;;;;;;4990072;28;20031;-59
2023/12/05 03:17:45;;;;;;;45.08;20.60;;;-2.60;99.90;;;;;;4989350;28;20487;-60
2023/12/05 03:20:11;;;;;;;40.17;19.55;;;-2.60;99.90;;;;;;4989856;28;20077;-60
2023/12/05 03:22:37;;;;;;;40.33;19.45;;;-2.60;99.90;;;;;;4989240;28;20818;-60
2023/12/05 03:25:02;;;;;;;36.92;20.02;;;-2.60;99.90;;;;;;4989660;28;20041;-62
2023/12/05 03:27:28;;;;;;;39.35;19.48;;;-2.60;99.90;;;;;;4988329;28;20058;-61
2023/12/05 03:29:54;;;;;;;40.05;19.70;;;-2.60;99.90;;;;;;4989612;28;20072;-60
2023/12/05 03:32:19;;;;;;;37.72;19.50;;;-2.60;99.90;;;;;;4989750;28;20070;-61
2023/12/05 03:34:47;;;;;;;37.72;20.27;;;-2.60;99.90;;;;;;4989416;28;20064;-60
2023/12/05 03:37:12;;;;;;;43.42;21.45;;;-2.60;99.90;;;;;;4987978;28;20128;-61
2023/12/05 03:39:38;;;;;;;37.58;19.50;;;-2.60;99.90;;;;;;4990329;28;20022;-62
2023/12/05 03:42:04;;;;;;;38.75;18.75;;;-2.60;99.90;;;;;;4989419;28;20065;-60
2023/12/05 03:44:30;;;;;;;34.30;19.25;;;-2.60;99.90;;;;;;4988792;28;20034;-62
2023/12/05 03:46:55;;;;;;;43.60;19.98;;;-2.60;99.90;;;;;;4989496;28;20027;-60
2023/12/05 03:49:21;;;;;;;42.78;21.42;;;-2.60;99.90;;;;;;4989586;28;20109;-60
2023/12/05 03:51:47;;;;;;;40.25;20.75;;;-2.60;99.90;;;;;;4989578;28;20022;-60
2023/12/05 03:54:13;;;;;;;45.42;21.70;;;-2.60;99.90;;;;;;4986714;28;20359;-60
2023/12/05 03:56:38;;;;;;;40.47;21.38;;;-2.60;99.90;;;;;;4988984;28;20422;-61
2023/12/05 03:59:04;;;;;;;39.38;21.02;;;-2.60;99.90;;;;;;4989178;28;20038;-60
2023/12/05 04:01:29;;;;;;;37.45;20.52;;;-2.50;99.90;;;;;;4986670;28;20172;-60
2023/12/05 04:03:55;;;;;;;45.20;23.73;;;-2.60;99.90;;;;;;4989129;28;20026;-60
2023/12/05 04:06:22;;;;;;;35.28;20.02;;;-2.60;99.90;;;;;;4989133;28;20088;-59
2023/12/05 04:08:49;;;;;;;38.13;20.42;;;-2.60;99.90;;;;;;4988965;28;20026;-60
2023/12/05 04:11:15;;;;;;;46.25;21.83;;;-2.60;99.90;;;;;;4987777;28;20038;-61
2023/12/05 04:13:41;;;;;;;43.22;21.90;;;-2.60;99.90;;;;;;4989007;28;20030;-60
2023/12/05 04:16:07;;;;;;;43.65;21.17;;;-2.60;99.90;;;;;;4988196;28;20034;-60
2023/12/05 04:18:33;;;;;;;38.72;20.58;;;-2.60;99.90;;;;;;4988933;28;20038;-60
2023/12/05 04:20:58;;;;;;;45.47;21.95;;;-2.70;99.90;;;;;;4987420;28;20022;-62
2023/12/05 04:23:24;;;;;;;43.70;21.73;;;-2.70;99.90;;;;;;4988669;28;20445;-60
2023/12/05 04:25:50;;;;;;;44.42;21.58;;;-2.60;99.90;;;;;;4993573;28;20441;-61
2023/12/05 04:28:15;;;;;;;35.97;20.65;;;-2.60;99.90;;;;;;4988574;28;20493;-60
2023/12/05 04:30:41;;;;;;;41.78;19.75;;;-2.60;99.90;;;;;;4988474;28;20022;-60
2023/12/05 04:33:06;;;;;;;42.90;20.40;;;-2.60;99.90;;;;;;4986635;28;20022;-62
2023/12/05 04:35:32;;;;;;;38.53;20.70;;;-2.60;99.90;;;;;;4988339;28;20073;-61
2023/12/05 04:37:58;;;;;;;38.75;21.38;;;-2.60;99.90;;;;;;4987763;28;20019;-61
2023/12/05 04:40:23;;;;;;;45.45;22.17;;;-2.60;99.90;;;;;;4988605;28;20030;-60
2023/12/05 04:42:49;;;;;;;39.70;20.00;;;-2.60;99.90;;;;;;4988576;28;20100;-60
2023/12/05 04:45:16;;;;;;;45.38;22.17;;;-2.60;99.90;;;;;;4987134;28;20030;-60
2023/12/05 04:47:42;;;;;;;42.05;21.38;;;-2.60;99.90;;;;;;4987892;28;20511;-61
2023/12/05 04:50:09;;;;;;;41.00;21.17;;;-2.60;99.90;;;;;;4988403;28;20027;-60
2023/12/05 04:52:34;;;;;;;45.08;22.80;;;-2.60;99.90;;;;;;4988216;28;20053;-60
2023/12/05 04:55:00;;;;;;;48.22;21.63;;;-2.60;99.90;;;;;;4987556;28;20030;-59
2023/12/05 04:57:27;;;;;;;45.47;24.00;;;-2.60;99.90;;;;;;4988844;28;20800;-60
2023/12/05 04:59:52;;;;;;;47.17;22.60;;;-2.60;99.90;;;;;;4988175;28;20438;-60
2023/12/05 05:02:18;;;;;;;47.75;23.30;;;-2.50;99.90;;;;;;4987628;28;20056;-59
2023/12/05 05:04:43;;;;;;;40.30;20.55;;;-2.50;99.90;;;;;;4987787;28;20554;-60
2023/12/05 05:07:09;;;;;;;48.60;22.33;;;-2.50;99.90;;;;;;4987457;28;20099;-59
2023/12/05 05:09:35;;;;;;;42.13;20.77;;;-2.50;99.90;;;;;;4988855;28;20069;-59
2023/12/05 05:12:01;;;;;;;40.95;22.10;;;-2.40;99.90;;;;;;4987872;28;20077;-59
2023/12/05 05:14:26;;;;;;;41.90;20.38;;;-2.40;99.90;;;;;;4987535;28;20031;-59
2023/12/05 05:16:52;;;;;;;40.40;22.23;;;-2.40;99.90;;;;;;4988080;28;20597;-59
2023/12/05 05:19:17;;;;;;;45.50;21.75;;;-2.40;99.90;;;;;;4987113;28;20026;-59
2023/12/05 05:21:43;;;;;;;35.47;21.02;;;-2.40;99.90;;;;;;4986512;28;20026;-59
2023/12/05 05:24:09;;;;;;;47.83;22.35;;;-2.40;99.90;;;;;;4986077;28;20030;-58
2023/12/05 05:26:34;;;;;;;44.13;20.42;;;-2.40;99.90;;;;;;4986406;28;20026;-59
2023/12/05 05:29:00;;;;;;;45.72;21.65;;;-2.40;99.90;;;;;;4987683;28;20378;-60
2023/12/05 05:31:25;;;;;;;43.22;20.85;;;-2.40;99.90;;;;;;4987608;28;20129;-59
2023/12/05 05:33:51;;;;;;;37.10;20.77;;;-2.50;99.90;;;;;;4987893;28;20023;-60
2023/12/05 05:36:17;;;;;;;40.25;21.85;;;-2.40;99.90;;;;;;4987285;28;20471;-59
2023/12/05 05:38:42;;;;;;;40.20;21.27;;;-2.50;99.90;;;;;;4987781;28;20034;-59
2023/12/05 05:41:10;;;;;;;42.78;21.08;;;-2.40;99.90;;;;;;4986954;28;20046;-58
2023/12/05 05:43:35;;;;;;;48.47;23.77;;;-2.40;99.90;;;;;;4987528;28;20145;-58
2023/12/05 05:46:01;;;;;;;45.67;20.60;;;-2.40;99.90;;;;;;4987031;28;20109;-59
2023/12/05 05:48:27;;;;;;;42.58;21.73;;;-2.40;99.90;;;;;;4988325;28;20030;-60
2023/12/05 05:50:52;;;;;;;39.70;20.52;;;-2.40;99.90;;;;;;4986916;28;20050;-59
2023/12/05 05:53:18;;;;;;;34.47;20.23;;;-2.40;99.90;;;;;;4987580;28;20081;-60
2023/12/05 05:55:44;;;;;;;41.15;22.13;;;-2.40;99.90;;;;;;4986937;28;20058;-59
2023/12/05 05:58:12;;;;;;;40.63;21.70;;;-2.30;99.90;;;;;;4986092;28;20105;-60
2023/12/05 06:00:38;;;;;;;37.30;20.10;;;-2.30;99.90;;;;;;4986792;28;20103;-59
2023/12/05 06:03:04;;;;;;;41.60;20.42;;;-2.30;99.90;;;;;;4987293;28;20182;-59
2023/12/05 06:05:30;;;;;;;40.42;21.45;;;-2.30;99.90;;;;;;4986519;28;20029;-59
2023/12/05 06:07:55;;;;;;;34.50;19.50;;;-2.30;99.90;;;;;;4986697;28;20023;-59
2023/12/05 06:10:21;;;;;;;39.53;21.63;;;-2.30;99.90;;;;;;4986747;28;20081;-61
2023/12/05 06:12:47;;;;;;;39.92;21.23;;;-2.30;99.90;;;;;;4987546;28;20052;-61
2023/12/05 06:15:13;;;;;;;37.85;21.08;;;-2.30;99.90;;;;;;4986188;28;20030;-59
2023/12/05 06:17:39;;;;;;;40.28;20.95;;;-2.30;99.90;;;;;;4987325;28;20742;-59
2023/12/05 06:20:06;;;;;;;40.85;21.15;;;-2.30;99.90;;;;;;4985868;28;20478;-61
2023/12/05 06:22:31;;;;;;;41.78;20.90;;;-2.30;99.90;;;;;;4985471;28;20046;-60
2023/12/05 06:24:57;;;;;;;39.70;20.70;;;-2.30;99.90;;;;;;4985606;28;20026;-59
2023/12/05 06:27:23;;;;;;;34.85;20.30;;;-2.30;99.90;;;;;;4987245;28;20093;-59
2023/12/05 06:29:49;;;;;;;37.00;20.85;;;-2.20;99.90;;;;;;4986793;28;20027;-61
2023/12/05 06:32:14;;;;;;;40.38;20.80;;;-2.20;99.90;;;;;;4984992;28;20042;-58
2023/12/05 06:34:40;;;;;;;37.25;20.65;;;-2.20;99.90;;;;;;4985036;28;20031;-59
2023/12/05 06:37:06;;;;;;;33.65;18.98;;;-2.20;99.90;;;;;;4987222;28;20031;-59
2023/12/05 06:39:31;;;;;;;38.92;21.30;;;-2.10;99.90;;;;;;4990863;28;20348;-59
2023/12/05 06:41:57;;;;;;;36.50;19.92;;;-2.10;99.90;;;;;;4988643;28;20065;-59
2023/12/05 06:44:23;;;;;;;41.60;21.38;;;-2.10;99.90;;;;;;4990116;28;20102;-60
2023/12/05 06:46:49;;;;;;;40.13;20.00;;;-2.10;99.90;;;;;;4990454;28;20055;-60
2023/12/05 06:49:14;;;;;;;39.78;20.50;;;-2.10;99.90;;;;;;4990354;28;20030;-59
2023/12/05 06:51:40;;;;;;;41.15;20.27;;;-2.10;99.90;;;;;;4990613;28;20462;-59
2023/12/05 06:54:06;;;;;;;32.67;19.17;;;-2.10;99.90;;;;;;4990098;28;20034;-59
2023/12/05 06:56:31;;;;;;;40.20;21.58;;;-2.00;99.90;;;;;;4989648;28;20069;-59
2023/12/05 06:58:58;;;;;;;39.63;20.35;;;-2.00;99.90;;;;;;4989601;28;20030;-59
2023/12/05 07:01:23;;;;;;;37.80;22.55;;;-2.00;99.90;;;;;;4990133;28;20117;-59
2023/12/05 07:03:49;;;;;;;40.85;22.10;;;-2.00;99.90;;;;;;4989708;28;20101;-60
2023/12/05 07:06:15;;;;;;;36.10;21.42;;;-2.00;99.90;;;;;;4988074;28;21435;-60
2023/12/05 07:08:40;;;;;;;38.10;21.30;;;-2.00;99.90;;;;;;4988898;28;20105;-60
2023/12/05 07:11:06;;;;;;;44.33;22.65;;;-2.00;99.90;;;;;;4988840;28;20043;-60
2023/12/05 07:13:32;;;;;;;39.10;21.25;;;-2.00;99.90;;;;;;4989224;28;20014;-60
2023/12/05 07:15:57;;;;;;;41.80;21.95;;;-2.00;99.90;;;;;;4988809;28;20026;-60
2023/12/05 07:18:23;;;;;;;37.72;20.83;;;-2.00;99.90;;;;;;4990217;28;20119;-60
2023/12/05 07:20:49;;;;;;;37.63;20.30;;;-2.00;99.90;;;;;;4989120;28;20034;-59
2023/12/05 07:23:15;;;;;;;45.38;23.27;;;-1.90;99.90;;;;;;4989172;28;20372;-59
2023/12/05 07:25:40;;;;;;;39.13;21.73;;;-1.90;99.90;;;;;;4988399;28;20042;-61
2023/12/05 07:28:06;;;;;;;43.50;21.70;;;-1.90;99.90;;;;;;4988868;28;20050;-59
2023/12/05 07:30:32;;;;;;;40.75;23.23;;;-1.90;99.90;;;;;;4989521;28;20033;-60
2023/12/05 07:32:57;;;;;;;42.08;22.55;;;-1.80;99.90;;;;;;4988610;28;20491;-59
2023/12/05 07:35:23;;;;;;;35.60;20.02;;;-1.80;99.90;;;;;;4988034;28;20033;-60
2023/12/05 07:37:49;;;;;;;42.38;22.45;;;-1.80;99.90;;;;;;4989321;28;20141;-59
2023/12/05 07:40:16;;;;;;;41.45;23.75;;;-1.80;99.90;;;;;;4988644;28;20030;-61
2023/12/05 07:42:44;;;;;;;35.83;21.27;;;-1.70;99.90;;;;;;4989775;28;20492;-61
2023/12/05 07:45:09;;;;;;;44.65;24.27;;;-1.70;99.90;;;;;;4988799;28;20030;-59
2023/12/05 07:47:35;;;;;;;43.78;21.25;;;-1.60;99.90;;;;;;4989108;28;20505;-60
2023/12/05 07:50:01;;;;;;;49.42;24.90;;;-1.60;99.90;;;;;;4988680;28;20053;-60
2023/12/05 07:52:27;;;;;;;38.67;20.75;;;-1.50;99.90;;;;;;4987042;28;20045;-61
2023/12/05 07:54:52;;;;;;;44.08;23.25;;;-1.50;99.90;;;;;;4987227;28;20560;-59
2023/12/05 07:57:22;;;;;;;40.33;21.92;;;-1.40;99.90;;;;;;4988906;28;20049;-60
2023/12/05 07:59:48;;;;;;;39.95;20.88;;;-1.50;99.90;;;;;;4988151;28;20121;-61
2023/12/05 08:02:14;;;;;;;41.25;20.98;;;-1.50;99.90;;;;;;4988812;28;20085;-60
2023/12/05 08:04:41;;;;;;;40.28;21.48;;;-1.50;99.90;;;;;;4988208;28;20050;-60
2023/12/05 08:07:07;;;;;;;43.40;23.23;;;-1.50;99.90;;;;;;4987149;28;20039;-59
2023/12/05 08:09:33;;;;;;;38.97;22.83;;;-1.40;99.90;;;;;;4989144;28;20118;-59
2023/12/05 08:11:58;;;;;;;38.05;21.98;;;-1.40;99.90;;;;;;4987778;28;20069;-60
2023/12/05 08:14:24;;;;;;;36.45;20.92;;;-1.40;99.90;;;;;;4987804;28;20101;-59
2023/12/05 08:16:50;;;;;;;42.85;22.30;;;-1.30;99.90;;;;;;4986424;28;20404;-60
2023/12/05 08:19:15;;;;;;;39.22;22.10;;;-1.30;99.90;;;;;;4987967;28;20030;-59
2023/12/05 08:21:41;;;;;;;35.88;21.58;;;-1.30;99.90;;;;;;4988435;28;20030;-59
2023/12/05 08:24:07;;;;;;;45.05;21.85;;;-1.30;99.90;;;;;;4987993;28;20024;-59
2023/12/05 08:26:32;;;;;;;42.38;21.98;;;-1.30;99.90;;;;;;4985282;28;20049;-59
2023/12/05 08:28:58;;;;;;;36.30;21.38;;;-1.30;99.90;;;;;;4986481;28;20030;-59
2023/12/05 08:31:24;;;;;;;38.38;21.35;;;-1.30;99.90;;;;;;4986011;28;20030;-59
2023/12/05 08:33:50;;;;;;;40.58;22.58;;;-1.20;99.90;;;;;;4987567;28;20483;-60
2023/12/05 08:36:15;;;;;;;35.83;21.38;;;-1.10;99.90;;;;;;4987103;28;20042;-60
2023/12/05 08:38:41;;;;;;;38.20;20.23;;;-1.00;99.90;;;;;;4986887;28;20042;-59
2023/12/05 08:41:07;;;;;;;37.70;20.75;;;-0.90;99.90;;;;;;4986298;28;20027;-59
2023/12/05 08:43:33;;;;;;;41.83;22.38;;;-0.80;99.90;;;;;;4987603;28;20144;-59
2023/12/05 08:45:59;;;;;;;37.88;22.13;;;-0.70;99.90;;;;;;4986688;28;20041;-59
2023/12/05 08:48:25;;;;;;;42.90;21.13;;;-0.70;99.90;;;;;;4988363;28;20030;-59
2023/12/05 08:50:51;;;;;;;37.95;21.58;;;-0.70;99.90;;;;;;4987346;28;20125;-60
2023/12/05 08:53:17;;;;;;;37.40;20.98;;;-0.70;99.90;;;;;;4986496;28;20756;-60
2023/12/05 08:55:43;;;;;;;35.45;20.83;;;-0.70;99.90;;;;;;4985756;28;20066;-59
2023/12/05 08:58:09;;;;;;;35.70;22.40;;;-0.80;99.90;;;;;;4987190;28;20038;-60
2023/12/05 09:00:35;;;;;;;35.95;20.63;;;-0.80;99.90;;;;;;4987181;28;20038;-59
2023/12/05 09:03:00;;;;;;;39.90;22.15;;;-0.80;99.90;;;;;;4986708;28;20038;-60
2023/12/05 09:05:26;;;;;;;39.63;22.23;;;-0.80;99.90;;;;;;4986529;28;20035;-60
2023/12/05 09:07:52;;;;;;;38.75;22.48;;;-0.80;99.90;;;;;;4987305;28;20042;-59
2023/12/05 09:10:17;;;;;;;43.75;22.67;;;-0.80;99.90;;;;;;4986031;28;20109;-59
2023/12/05 09:12:43;;;;;;;34.63;21.63;;;-0.70;99.90;;;;;;4987339;28;20042;-60
2023/12/05 09:15:09;;;;;;;46.88;24.20;;;-0.70;99.90;;;;;;4986641;28;20026;-60
2023/12/05 09:17:34;;;;;;;38.95;22.40;;;-0.70;99.90;;;;;;4985844;28;20109;-59
2023/12/05 09:20:00;;;;;;;39.30;22.98;;;-0.70;99.90;;;;;;4985518;28;20027;-59
2023/12/05 09:22:26;;;;;;;43.65;22.80;;;-0.70;99.90;;;;;;4986696;28;20450;-60
2023/12/05 09:24:51;;;;;;;40.90;23.02;;;-0.60;99.90;;;;;;4985172;28;20026;-59
2023/12/05 09:27:17;;;;;;;38.42;21.27;;;-0.40;99.90;;;;;;4986172;28;20045;-60
2023/12/05 09:29:42;;;;;;;35.30;21.75;;;-0.40;99.90;;;;;;4986518;28;20046;-58
2023/12/05 09:32:08;;;;;;;36.67;22.10;;;-0.30;99.90;;;;;;4985565;28;20062;-59
2023/12/05 09:34:34;;;;;;;40.10;20.17;;;-0.30;99.90;;;;;;4986620;28;20121;-58
2023/12/05 09:36:59;;;;;;;37.00;20.75;;;-0.30;99.90;;;;;;4987061;28;20026;-59
2023/12/05 09:39:25;;;;;;;40.03;22.88;;;-0.20;99.90;;;;;;4987323;28;20026;-59
2023/12/05 09:41:54;;;;;;;37.83;20.75;;;-0.20;99.90;;;;;;4986610;28;20035;-59
2023/12/05 09:44:23;;;;;;;38.78;22.83;;;0.00;99.90;;;;;;4986227;28;20030;-59
2023/12/05 09:46:57;;;;;;;37.45;21.90;;;0.10;99.90;;;;;;4985787;28;20037;-60
2023/12/05 09:49:26;;;;;;;36.67;21.83;;;0.20;99.90;;;;;;4986611;28;20105;-60
2023/12/05 09:51:56;;;;;;;35.50;21.90;;;0.20;99.90;;;;;;4985739;28;20077;-60
2023/12/05 09:54:24;;;;;;;32.92;20.50;;;0.20;99.90;;;;;;4986093;28;20070;-59
2023/12/05 09:56:54;;;;;;;39.38;22.27;;;0.20;99.90;;;;;;4985399;28;20453;-59
2023/12/05 09:59:21;;;;;;;34.08;22.02;;;0.20;99.90;;;;;;4985072;28;20053;-59
2023/12/05 10:01:47;;;;;;;38.88;23.10;;;0.20;99.90;;;;;;4985936;28;20084;-59
2023/12/05 10:04:18;;;;;;;34.22;20.90;;;0.20;99.90;;;;;;4990823;28;20038;-60
2023/12/05 10:06:46;;;;;;;39.58;21.88;;;0.20;99.90;;;;;;4986526;28;20451;-58
2023/12/05 10:09:15;;;;;;;41.92;22.08;;;0.20;99.90;;;;;;4983647;28;20039;-59
2023/12/05 10:11:41;;;;;;;40.35;22.92;;;0.20;99.90;;;;;;4986373;28;20376;-59
2023/12/05 10:14:07;;;;;;;37.67;21.27;;;0.30;99.90;;;;;;4989302;28;20026;-59
2023/12/05 10:16:33;;;;;;;38.70;22.25;;;0.40;99.90;;;;;;4988845;28;20046;-58
2023/12/05 10:19:00;;;;;;;43.70;22.35;;;0.40;99.90;;;;;;4990541;28;20106;-59
2023/12/05 10:21:25;;;;;;;42.75;23.08;;;0.60;99.90;;;;;;4989956;28;20407;-59
2023/12/05 10:23:51;;;;;;;39.03;21.70;;;0.60;99.90;;;;;;4988656;28;20585;-60
2023/12/05 10:26:17;;;;;;;35.63;21.00;;;0.60;99.90;;;;;;4988286;28;20038;-60
2023/12/05 10:28:54;;;;;;;43.83;21.33;;;0.60;99.90;;;;;;4990398;28;20050;-60
2023/12/05 10:31:20;;;;;;;34.75;21.02;;;0.60;99.90;;;;;;4989796;28;20113;-62
2023/12/05 10:33:48;;;;;;;35.40;21.52;;;0.60;99.90;;;;;;4990327;28;20062;-60
2023/12/05 10:36:14;;;;;;;30.92;20.45;;;0.50;99.90;;;;;;4987295;28;20038;-60
2023/12/05 10:38:46;;;;;;;36.42;21.65;;;0.50;99.90;;;;;;4989218;28;20038;-59
2023/12/05 10:41:20;;;;;;;31.58;20.75;;;0.60;99.90;;;;;;4987764;28;20030;-61
2023/12/05 10:43:51;;;;;;;29.98;19.38;;;0.70;99.90;;;;;;4988694;28;20034;-60
2023/12/05 10:46:17;;;;;;;33.28;19.40;;;0.80;99.90;;;;;;4987796;28;20038;-59
2023/12/05 10:48:46;;;;;;;33.78;20.80;;;0.90;99.90;;;;;;4990543;28;20034;-58
2023/12/05 10:51:13;;;;;;;31.25;19.20;;;0.90;99.90;;;;;;4990136;28;20121;-60
2023/12/05 10:53:39;;;;;;;32.55;19.88;;;1.00;99.90;;;;;;4988774;28;20030;-60
2023/12/05 10:56:16;;;;;;;32.17;19.92;;;1.10;99.90;;;;;;4989236;28;20065;-60
2023/12/05 10:58:42;;;;;;;36.75;21.05;;;1.30;99.90;;;;;;4988986;28;20415;-60
2023/12/05 11:01:12;;;;;;;29.52;19.20;;;1.50;99.90;;;;;;4989440;28;20038;-60
2023/12/05 11:03:38;;;;;;;28.05;18.60;;;1.60;99.90;;;;;;4989727;28;20387;-60
2023/12/05 11:06:08;;;;;;;27.92;18.17;;;1.70;99.90;;;;;;4987513;28;20027;-61
2023/12/05 11:08:35;;;;;;;33.25;19.92;;;1.90;99.90;;;;;;4989797;28;20034;-60
2023/12/05 11:11:05;;;;;;;31.48;18.92;;;1.90;99.90;;;;;;4989214;28;20026;-59
2023/12/05 11:13:35;;;;;;;30.85;19.05;;;1.90;99.90;;;;;;4988015;28;20038;-60
2023/12/05 11:16:13;;;;;;;28.90;18.80;;;2.00;99.90;;;;;;4989354;28;20031;-61
2023/12/05 11:18:43;;;;;;;27.80;18.60;;;1.90;99.90;;;;;;4986759;28;20022;-61
2023/12/05 11:21:24;;;;;;;34.23;19.43;;;1.60;99.90;;;;;;4988687;28;20031;-60
2023/12/05 11:23:59;;;;;;;28.73;18.38;;;1.50;99.90;;;;;;4987527;28;20277;-60
2023/12/05 11:26:39;;;;;;;30.30;18.63;;;1.50;99.90;;;;;;4989205;28;20061;-61
2023/12/05 11:29:33;;;;;;;33.72;19.30;;;1.80;99.90;;;;;;4989423;28;20099;-61
2023/12/05 11:32:37;;;;;;;29.23;19.50;;;2.10;99.90;;;;;;4988952;28;20030;-61
2023/12/05 11:35:16;;;;;;;27.05;17.67;;;2.50;99.90;;;;;;4987058;28;20026;-60
2023/12/05 11:38:14;;;;;;;30.08;18.52;;;2.60;99.90;;;;;;4988902;28;20101;-60
2023/12/05 11:40:40;;;;;;;23.13;16.13;;;2.60;99.90;;;;;;4964403;28;20113;-60
2023/12/05 11:43:10;;;;;;;27.08;17.45;;;2.50;99.90;;;;;;4988470;28;20038;-60
2023/12/05 11:45:45;;;;;;;28.50;18.63;;;2.40;99.90;;;;;;4988343;28;20045;-61
2023/12/05 11:48:21;;;;;;;27.88;19.60;;;2.00;99.90;;;;;;4992269;28;20280;-61
2023/12/05 11:50:50;;;;;;;26.83;18.42;;;1.70;99.90;;;;;;4987156;28;20034;-60
2023/12/05 11:53:18;;;;;;;29.48;18.23;;;1.50;99.90;;;;;;4984211;28;20133;-59
2023/12/05 11:55:47;;;;;;;33.40;21.08;;;1.40;99.90;;;;;;4987820;28;20042;-61
2023/12/05 11:58:29;;;;;;;36.13;21.05;;;1.40;99.90;;;;;;4988372;28;20088;-61
2023/12/05 12:01:07;;;;;;;30.10;19.33;;;1.50;99.90;;;;;;4987724;28;20073;-60
2023/12/05 12:03:55;;;;;;;35.72;20.98;;;1.50;99.90;;;;;;4989089;28;20030;-61
2023/12/05 12:06:23;;;;;;;29.70;19.02;;;1.50;99.90;;;;;;4987672;28;20039;-61
2023/12/05 12:08:53;;;;;;;33.00;19.95;;;1.60;99.90;;;;;;4989888;28;20038;-61
2023/12/05 12:11:23;;;;;;;33.45;21.48;;;1.60;99.90;;;;;;4987903;28;20038;-61
2023/12/05 12:13:49;;;;;;;36.00;20.42;;;1.60;99.90;;;;;;4988707;28;20638;-60
2023/12/05 12:16:16;;;;;;;30.65;20.13;;;1.70;99.90;;;;;;4987460;28;21161;-60
2023/12/05 12:18:42;;;;;;;27.95;19.67;;;1.80;99.90;;;;;;4987457;28;20041;-61
2023/12/05 12:21:08;;;;;;;31.88;21.10;;;1.70;99.90;;;;;;4987902;28;20060;-60
2023/12/05 12:23:34;;;;;;;34.22;20.83;;;1.70;99.90;;;;;;4988316;28;20046;-60
2023/12/05 12:26:01;;;;;;;34.30;23.02;;;1.60;99.90;;;;;;4986255;28;20050;-59
2023/12/05 12:28:29;;;;;;;34.65;21.13;;;1.60;99.90;;;;;;4954673;28;20045;-61